createdAt,value
2023-03-29T00:04:22.122Z,25.9
2023-03-29T00:09:58.264Z,25.1
2023-03-29T00:15:49.638Z,24.7
2023-03-29T00:21:41.657Z,24.3
2023-03-29T00:27:33.528Z,24
2023-03-29T00:33:10.275Z,23.6
2023-03-29T00:39:02.208Z,24.7
2023-03-29T00:44:23.333Z,26
2023-03-29T00:49:44.217Z,26.8
2023-03-29T00:55:20.605Z,26.7
2023-03-29T01:00:57.033Z,25.3
2023-03-29T01:06:33.757Z,24.9
2023-03-29T01:11:54.244Z,24.3
2023-03-29T01:17:30.636Z,24
2023-03-29T01:23:21.957Z,23.8
2023-03-29T01:29:13.207Z,23.8
2023-03-29T01:35:05.032Z,24.7
2023-03-29T01:40:57.090Z,26.3
2023-03-29T01:46:17.295Z,26.8
2023-03-29T01:51:54.220Z,26.5
2023-03-29T01:57:46.224Z,25.1
2023-03-29T02:03:22.689Z,24.6
2023-03-29T02:09:14.622Z,24.1
2023-03-29T02:15:06.530Z,24
2023-03-29T02:20:42.771Z,23.6
2023-03-29T02:26:19.578Z,24.3
2023-03-29T02:32:11.569Z,25.3
2023-03-29T02:37:47.953Z,25.4
2023-03-29T02:43:25.840Z,25.9
2023-03-29T02:48:47.395Z,26.6
2023-03-29T02:54:39.056Z,26.4
2023-03-29T03:00:31.164Z,25
2023-03-29T03:06:07.610Z,24.6
2023-03-29T03:11:58.475Z,24.1
2023-03-29T03:17:53.894Z,23.9
2023-03-29T03:23:30.778Z,23.5
2023-03-29T03:29:06.619Z,24.2
2023-03-29T03:34:58.897Z,25.3
2023-03-29T03:40:35.837Z,26.5
2023-03-29T03:45:59.935Z,26.6
2023-03-29T03:51:37.050Z,25.8
2023-03-29T03:57:13.079Z,24.9
2023-03-29T04:02:49.963Z,24.3
2023-03-29T04:08:42.710Z,23.9
2023-03-29T04:14:19.285Z,23.8
2023-03-29T04:20:12.742Z,23.4
2023-03-29T04:26:04.831Z,24.1
2023-03-29T04:31:56.932Z,25.7
2023-03-29T04:37:51.202Z,26.6
2023-03-29T04:43:29.238Z,26.7
2023-03-29T04:49:06.063Z,25.3
2023-03-29T04:54:57.217Z,24.8
2023-03-29T05:00:51.249Z,24.2
2023-03-29T05:06:42.813Z,23.8
2023-03-29T05:12:36.913Z,23.6
2023-03-29T05:18:29.485Z,23.8
2023-03-29T05:24:21.020Z,24.6
2023-03-29T05:30:11.698Z,26.1
2023-03-29T05:35:48.165Z,26.6
2023-03-29T05:41:16.289Z,26.5
2023-03-29T05:46:53.208Z,25
2023-03-29T05:52:29.958Z,24.6
2023-03-29T05:58:22.170Z,24
2023-03-29T06:04:26.619Z,23.7
2023-03-29T06:10:18.983Z,23.4
2023-03-29T06:16:10.831Z,23.9
2023-03-29T06:22:02.577Z,24.8
2023-03-29T06:27:55.061Z,24.9
2023-03-29T06:33:49.451Z,26
2023-03-29T06:39:25.911Z,26.6
2023-03-29T06:45:14.972Z,26.5
2023-03-29T06:51:06.450Z,25
2023-03-29T06:56:42.459Z,24.4
2023-03-29T07:02:19.395Z,23.9
2023-03-29T07:07:40.855Z,24.1
2023-03-29T07:13:33.240Z,24.8
2023-03-29T07:19:27.097Z,26.2
2023-03-29T07:24:48.006Z,26.7
2023-03-29T07:30:52.975Z,26.5
2023-03-29T07:36:30.655Z,24.9
2023-03-29T07:42:07.107Z,24.5
2023-03-29T07:47:57.923Z,23.9
2023-03-29T07:53:49.592Z,24.1
2023-03-29T07:59:41.542Z,24.8
2023-03-29T08:05:49.910Z,26.3
2023-03-29T08:11:11.084Z,26.8
2023-03-29T08:16:48.708Z,25.8
2023-03-29T08:22:35.788Z,24.9
2023-03-29T08:28:12.188Z,24.8
2023-03-29T08:34:04.908Z,24.3
2023-03-29T08:39:56.919Z,24.8
2023-03-29T08:45:33.222Z,26.4
2023-03-29T08:51:00.333Z,26.8
2023-03-29T08:56:05.244Z,26.6
2023-03-29T09:01:41.705Z,26.4
2023-03-29T09:07:03.242Z,26.1
2023-03-29T09:12:40.736Z,25.8
2023-03-29T09:18:18.387Z,24.6
2023-03-29T09:23:55.753Z,26.3
2023-03-29T09:29:44.159Z,26.8
2023-03-29T09:34:50.023Z,26.6
2023-03-29T09:40:26.164Z,26.3
2023-03-29T09:46:27.101Z,24.9
2023-03-29T09:52:15.915Z,26.2
2023-03-29T09:57:53.557Z,26.9
2023-03-29T10:03:30.527Z,26.7
2023-03-29T10:09:10.171Z,26.4
2023-03-29T10:14:46.410Z,25.1
2023-03-29T10:20:36.810Z,26
2023-03-29T10:25:59.507Z,27
2023-03-29T10:31:36.530Z,26.9
2023-03-29T10:37:13.282Z,26.5
2023-03-29T10:42:49.156Z,25.2
2023-03-29T10:48:10.213Z,26.5
2023-03-29T10:53:46.900Z,27.1
2023-03-29T10:59:23.518Z,26.8
2023-03-29T11:04:45.711Z,26.4
2023-03-29T11:10:21.144Z,26.1
2023-03-29T11:16:10.232Z,24.9
2023-03-29T11:21:31.338Z,26
2023-03-29T11:26:52.589Z,26.3
2023-03-29T11:32:14.310Z,26.1
2023-03-29T11:37:51.032Z,25.8
2023-03-29T11:42:56.504Z,25.5
2023-03-29T11:48:48.768Z,24.8
2023-03-29T11:54:27.274Z,26.1
2023-03-29T11:59:48.449Z,26.1
2023-03-29T12:05:27.230Z,25.9
2023-03-29T12:11:06.545Z,25.7
2023-03-29T12:16:27.074Z,25.4
2023-03-29T12:22:06.675Z,24.6
2023-03-29T12:27:43.434Z,25.8
2023-03-29T12:33:04.555Z,26.1
2023-03-29T12:38:41.628Z,25.9
2023-03-29T12:44:33.292Z,25.8
2023-03-29T12:50:26.525Z,25.5
2023-03-29T12:56:18.787Z,24.9
2023-03-29T13:01:56.232Z,24.8
2023-03-29T13:07:47.933Z,26.2
2023-03-29T13:13:39.505Z,26.1
2023-03-29T13:19:46.145Z,25.9
2023-03-29T13:25:37.360Z,25.6
2023-03-29T13:31:29.174Z,25.3
2023-03-29T13:37:06.093Z,24.9
2023-03-29T13:42:57.284Z,24.4
2023-03-29T13:49:04.566Z,25.8
2023-03-29T13:54:56.548Z,26.2
2023-03-29T14:00:51.152Z,25.9
2023-03-29T14:06:43.309Z,25.7
2023-03-29T14:12:35.261Z,25.4
2023-03-29T14:18:34.122Z,25.2
2023-03-29T14:24:26.201Z,24.9
2023-03-29T14:30:02.930Z,24.6
2023-03-29T14:35:54.384Z,24.3
2023-03-29T14:41:47.414Z,23.9
2023-03-29T14:47:39.664Z,23.6
2023-03-29T14:53:30.110Z,23.3
2023-03-29T14:59:22.561Z,23
2023-03-29T15:05:17.577Z,22.7
2023-03-29T15:11:18.596Z,22.5
2023-03-29T15:18:28.680Z,22.3
2023-03-29T15:24:18.986Z,23.9
2023-03-29T15:29:57.471Z,26.4
2023-03-29T15:36:06.357Z,28
2023-03-29T15:42:09.358Z,29.3
2023-03-29T15:48:00.969Z,29.8
2023-03-29T15:54:03.912Z,29.7
2023-03-29T15:59:56.145Z,29.6
2023-03-29T16:05:47.885Z,29.8
2023-03-29T16:11:26.130Z,30.1
2023-03-29T16:17:19.108Z,29.8
2023-03-29T16:23:09.923Z,29.9
2023-03-29T16:28:45.965Z,29.8
2023-03-29T16:34:23.472Z,29.4
2023-03-29T16:40:14.856Z,29.4
2023-03-29T16:45:51.716Z,30.6
2023-03-29T16:51:13.196Z,31.3
2023-03-29T16:57:04.259Z,31.6
2023-03-29T17:02:59.192Z,31.8
2023-03-29T17:08:51.586Z,32
2023-03-29T17:14:28.651Z,32.1
2023-03-29T17:20:20.945Z,32.3
2023-03-29T17:26:12.489Z,32.3
2023-03-29T17:32:03.898Z,31.9
2023-03-29T17:37:56.203Z,31.9
2023-03-29T17:43:48.946Z,31.5
2023-03-29T17:49:44.215Z,31.6
2023-03-29T17:55:36.199Z,31.7
2023-03-29T18:01:28.837Z,31.9
2023-03-29T18:07:20.775Z,31.8
2023-03-29T18:13:12.875Z,31.8
2023-03-29T18:19:04.816Z,31.6
2023-03-29T18:24:55.475Z,31.6
2023-03-29T18:30:16.707Z,31.3
2023-03-29T18:36:12.131Z,31.1
2023-03-29T18:42:04.707Z,31.4
2023-03-29T18:47:56.837Z,31.8
2023-03-29T18:53:50.879Z,31.6
2023-03-29T18:59:43.998Z,31.9
2023-03-29T19:05:37.318Z,31.6
2023-03-29T19:10:58.477Z,31.3
2023-03-29T19:16:34.923Z,30.9
2023-03-29T19:22:26.985Z,30.7
2023-03-29T19:28:19.446Z,30.4
2023-03-29T19:34:12.796Z,30.1
2023-03-29T19:39:33.516Z,29.8
2023-03-29T19:45:25.759Z,29.4
2023-03-29T19:51:24.460Z,29.1
2023-03-29T19:57:16.864Z,28.8
2023-03-29T20:02:54.002Z,28.6
2023-03-29T20:08:30.650Z,28.4
2023-03-29T20:14:41.228Z,28.2
2023-03-29T20:20:17.840Z,27.9
2023-03-29T20:26:09.373Z,27.7
2023-03-29T20:32:00.987Z,27.6
2023-03-29T20:37:54.034Z,27.4
2023-03-29T20:43:49.170Z,27.3
2023-03-29T20:49:41.114Z,27.1
2023-03-29T20:55:33.544Z,27
2023-03-29T21:01:24.403Z,26.8
2023-03-29T21:07:03.235Z,26.5
2023-03-29T21:12:55.316Z,25.9
2023-03-29T21:18:50.128Z,25.5
2023-03-29T21:24:25.090Z,25.1
2023-03-29T21:30:17.299Z,24.8
2023-03-29T21:36:09.807Z,24.4
2023-03-29T21:42:01.452Z,25.7
2023-03-29T21:47:53.753Z,26.8
2023-03-29T21:53:45.117Z,27.3
2023-03-29T21:59:05.451Z,26.9
2023-03-29T22:05:09.429Z,26.5
2023-03-29T22:11:00.940Z,26.1
2023-03-29T22:16:52.526Z,25.7
2023-03-29T22:22:45.280Z,25.3
2023-03-29T22:28:37.110Z,25.5
2023-03-29T22:34:29.177Z,26.6
2023-03-29T22:40:21.895Z,27.2
2023-03-29T22:46:13.856Z,26.8
2023-03-29T22:52:05.541Z,26.4
2023-03-29T22:57:57.553Z,26
2023-03-29T23:03:34.549Z,25.6
2023-03-29T23:09:10.101Z,25.1
2023-03-29T23:15:01.207Z,25.6
2023-03-29T23:20:37.346Z,27.1
2023-03-29T23:26:30.519Z,26.9
2023-03-29T23:32:22.454Z,26.5
2023-03-29T23:37:58.386Z,26.1
2023-03-29T23:43:50.551Z,25.8
2023-03-29T23:49:42.923Z,25.2
2023-03-29T23:55:33.545Z,25.5
